sensor_id;sensor_type;location;lat;lon;timestamp;temperature;humidity
19870;DHT22;10097;50.862;4.696;2023-08-24T11:25:57;21.80;99.90
19870;DHT22;10097;50.862;4.696;2023-08-24T11:28:27;21.70;99.90
19870;DHT22;10097;50.862;4.696;2023-08-24T11:30:58;21.80;99.90
19870;DHT22;10097;50.862;4.696;2023-08-24T11:33:37;22.00;99.90
19870;DHT22;10097;50.862;4.696;2023-08-24T11:39:07;22.50;99.90
19870;DHT22;10097;50.862;4.696;2023-08-24T11:41:44;22.80;99.90
19870;DHT22;10097;50.862;4.696;2023-08-24T11:44:14;23.00;99.90
19870;DHT22;10097;50.862;4.696;2023-08-24T11:46:53;23.00;99.90
19870;DHT22;10097;50.862;4.696;2023-08-24T11:49:26;23.10;99.90
19870;DHT22;10097;50.862;4.696;2023-08-24T11:51:52;23.20;99.90
19870;DHT22;10097;50.862;4.696;2023-08-24T11:54:21;23.20;99.90
19870;DHT22;10097;50.862;4.696;2023-08-24T11:56:46;23.20;99.90
19870;DHT22;10097;50.862;4.696;2023-08-24T11:59:13;23.30;99.90
19870;DHT22;10097;50.862;4.696;2023-08-24T12:01:41;23.30;99.90
19870;DHT22;10097;50.862;4.696;2023-08-24T12:04:07;23.20;99.90
19870;DHT22;10097;50.862;4.696;2023-08-24T12:06:33;23.10;99.90
19870;DHT22;10097;50.862;4.696;2023-08-24T12:08:58;23.10;99.90
19870;DHT22;10097;50.862;4.696;2023-08-24T12:11:24;23.20;99.90
19870;DHT22;10097;50.862;4.696;2023-08-24T12:13:53;23.00;99.90
19870;DHT22;10097;50.862;4.696;2023-08-24T12:16:20;22.90;99.90
19870;DHT22;10097;50.862;4.696;2023-08-24T12:18:54;22.90;99.90
19870;DHT22;10097;50.862;4.696;2023-08-24T12:21:31;22.90;99.90
19870;DHT22;10097;50.862;4.696;2023-08-24T12:24:06;22.90;99.90
19870;DHT22;10097;50.862;4.696;2023-08-24T12:26:33;22.80;99.90
19870;DHT22;10097;50.862;4.696;2023-08-24T12:29:02;22.70;99.90
19870;DHT22;10097;50.862;4.696;2023-08-24T12:31:28;22.70;99.90
19870;DHT22;10097;50.862;4.696;2023-08-24T12:34:05;22.60;99.90
19870;DHT22;10097;50.862;4.696;2023-08-24T12:36:36;22.50;99.90
19870;DHT22;10097;50.862;4.696;2023-08-24T12:39:03;22.50;99.90
19870;DHT22;10097;50.862;4.696;2023-08-24T12:41:38;22.30;99.90
19870;DHT22;10097;50.862;4.696;2023-08-24T12:44:04;22.20;99.90
19870;DHT22;10097;50.862;4.696;2023-08-24T12:46:34;22.10;99.90
19870;DHT22;10097;50.862;4.696;2023-08-24T12:49:02;22.00;99.90
19870;DHT22;10097;50.862;4.696;2023-08-24T12:51:28;21.90;99.90
19870;DHT22;10097;50.862;4.696;2023-08-24T12:53:54;21.80;99.90
19870;DHT22;10097;50.862;4.696;2023-08-24T12:56:20;21.60;99.90
19870;DHT22;10097;50.862;4.696;2023-08-24T12:58:45;21.50;99.90
19870;DHT22;10097;50.862;4.696;2023-08-24T13:01:11;21.40;99.90
19870;DHT22;10097;50.862;4.696;2023-08-24T13:03:40;21.40;99.90
19870;DHT22;10097;50.862;4.696;2023-08-24T13:06:06;21.30;99.90
19870;DHT22;10097;50.862;4.696;2023-08-24T13:08:32;21.30;99.90
19870;DHT22;10097;50.862;4.696;2023-08-24T13:10:58;21.20;99.90
19870;DHT22;10097;50.862;4.696;2023-08-24T13:13:24;21.20;99.90
19870;DHT22;10097;50.862;4.696;2023-08-24T13:15:50;21.10;99.90
19870;DHT22;10097;50.862;4.696;2023-08-24T13:18:17;21.10;99.90
19870;DHT22;10097;50.862;4.696;2023-08-24T13:20:43;21.10;99.90
19870;DHT22;10097;50.862;4.696;2023-08-24T13:23:08;21.00;99.90
19870;DHT22;10097;50.862;4.696;2023-08-24T13:25:34;20.90;99.90
19870;DHT22;10097;50.862;4.696;2023-08-24T13:28:00;20.80;99.90
19870;DHT22;10097;50.862;4.696;2023-08-24T13:30:25;20.70;99.90
19870;DHT22;10097;50.862;4.696;2023-08-24T13:32:52;20.70;99.90
19870;DHT22;10097;50.862;4.696;2023-08-24T13:35:18;20.60;99.90
19870;DHT22;10097;50.862;4.696;2023-08-24T13:37:44;20.70;99.90
19870;DHT22;10097;50.862;4.696;2023-08-24T13:40:10;20.60;99.90
19870;DHT22;10097;50.862;4.696;2023-08-24T13:42:36;20.60;99.90
19870;DHT22;10097;50.862;4.696;2023-08-24T13:45:01;20.60;99.90
19870;DHT22;10097;50.862;4.696;2023-08-24T13:47:28;20.60;99.90
19870;DHT22;10097;50.862;4.696;2023-08-24T13:49:54;20.60;99.90
19870;DHT22;10097;50.862;4.696;2023-08-24T13:52:19;20.60;99.90
19870;DHT22;10097;50.862;4.696;2023-08-24T13:54:45;20.70;99.90
19870;DHT22;10097;50.862;4.696;2023-08-24T13:57:11;20.70;99.90
19870;DHT22;10097;50.862;4.696;2023-08-24T13:59:37;20.60;99.90
19870;DHT22;10097;50.862;4.696;2023-08-24T14:02:04;20.70;99.90
19870;DHT22;10097;50.862;4.696;2023-08-24T14:04:30;20.80;99.90
19870;DHT22;10097;50.862;4.696;2023-08-24T14:06:56;20.80;99.90
19870;DHT22;10097;50.862;4.696;2023-08-24T14:09:22;20.80;99.90
19870;DHT22;10097;50.862;4.696;2023-08-24T14:11:47;20.80;99.90
19870;DHT22;10097;50.862;4.696;2023-08-24T14:14:13;20.90;99.90
19870;DHT22;10097;50.862;4.696;2023-08-24T14:16:39;20.90;99.90
19870;DHT22;10097;50.862;4.696;2023-08-24T14:19:05;20.90;99.90
19870;DHT22;10097;50.862;4.696;2023-08-24T14:21:31;21.00;99.90
19870;DHT22;10097;50.862;4.696;2023-08-24T14:23:56;21.00;99.90
19870;DHT22;10097;50.862;4.696;2023-08-24T14:26:22;21.00;99.90
19870;DHT22;10097;50.862;4.696;2023-08-24T14:28:56;21.10;99.90
19870;DHT22;10097;50.862;4.696;2023-08-24T14:31:24;21.10;99.90
19870;DHT22;10097;50.862;4.696;2023-08-24T14:33:50;21.20;99.90
19870;DHT22;10097;50.862;4.696;2023-08-24T14:36:17;21.20;99.90
19870;DHT22;10097;50.862;4.696;2023-08-24T14:38:43;21.20;99.90
19870;DHT22;10097;50.862;4.696;2023-08-24T14:41:10;21.40;99.90
19870;DHT22;10097;50.862;4.696;2023-08-24T14:43:37;21.60;99.90
19870;DHT22;10097;50.862;4.696;2023-08-24T14:46:02;21.90;99.90
19870;DHT22;10097;50.862;4.696;2023-08-24T14:48:29;22.00;99.90
19870;DHT22;10097;50.862;4.696;2023-08-24T14:50:55;22.10;99.90
19870;DHT22;10097;50.862;4.696;2023-08-24T14:53:22;22.20;99.90
19870;DHT22;10097;50.862;4.696;2023-08-24T14:55:48;22.40;99.90
19870;DHT22;10097;50.862;4.696;2023-08-24T14:58:14;22.50;99.90
19870;DHT22;10097;50.862;4.696;2023-08-24T15:00:40;22.70;99.90
19870;DHT22;10097;50.862;4.696;2023-08-24T15:03:05;22.80;99.90
19870;DHT22;10097;50.862;4.696;2023-08-24T15:05:36;22.90;99.90
19870;DHT22;10097;50.862;4.696;2023-08-24T15:08:02;22.90;99.90
19870;DHT22;10097;50.862;4.696;2023-08-24T15:10:28;23.00;99.90
19870;DHT22;10097;50.862;4.696;2023-08-24T15:12:54;23.10;99.90
19870;DHT22;10097;50.862;4.696;2023-08-24T15:15:19;23.20;99.90
19870;DHT22;10097;50.862;4.696;2023-08-24T15:17:45;23.40;99.90
19870;DHT22;10097;50.862;4.696;2023-08-24T15:20:11;23.50;99.90
19870;DHT22;10097;50.862;4.696;2023-08-24T15:22:40;23.70;99.90
19870;DHT22;10097;50.862;4.696;2023-08-24T15:25:06;23.80;99.90
19870;DHT22;10097;50.862;4.696;2023-08-24T15:27:32;23.70;99.90
19870;DHT22;10097;50.862;4.696;2023-08-24T15:29:58;23.90;99.90
19870;DHT22;10097;50.862;4.696;2023-08-24T15:32:26;24.00;99.90
19870;DHT22;10097;50.862;4.696;2023-08-24T15:34:52;24.10;99.90
19870;DHT22;10097;50.862;4.696;2023-08-24T15:37:19;24.10;99.90
19870;DHT22;10097;50.862;4.696;2023-08-24T15:39:45;24.00;99.90
19870;DHT22;10097;50.862;4.696;2023-08-24T15:42:10;24.20;99.90
19870;DHT22;10097;50.862;4.696;2023-08-24T15:44:36;24.20;99.90
19870;DHT22;10097;50.862;4.696;2023-08-24T15:47:02;24.20;99.90
19870;DHT22;10097;50.862;4.696;2023-08-24T15:49:27;24.10;99.90
19870;DHT22;10097;50.862;4.696;2023-08-24T15:51:53;24.10;99.90
19870;DHT22;10097;50.862;4.696;2023-08-24T15:54:19;24.20;99.90
19870;DHT22;10097;50.862;4.696;2023-08-24T15:56:46;24.50;99.90
19870;DHT22;10097;50.862;4.696;2023-08-24T15:59:17;24.80;99.90
19870;DHT22;10097;50.862;4.696;2023-08-24T16:01:43;25.20;99.90
19870;DHT22;10097;50.862;4.696;2023-08-24T16:04:11;25.30;99.90
19870;DHT22;10097;50.862;4.696;2023-08-24T16:06:38;25.30;99.90
19870;DHT22;10097;50.862;4.696;2023-08-24T16:09:03;25.30;99.90
19870;DHT22;10097;50.862;4.696;2023-08-24T16:11:29;25.30;99.90
19870;DHT22;10097;50.862;4.696;2023-08-24T16:14:00;25.40;99.90
19870;DHT22;10097;50.862;4.696;2023-08-24T16:16:26;25.60;99.90
19870;DHT22;10097;50.862;4.696;2023-08-24T16:18:55;26.10;99.90
19870;DHT22;10097;50.862;4.696;2023-08-24T16:21:22;26.60;99.90
19870;DHT22;10097;50.862;4.696;2023-08-24T16:23:48;27.00;99.90
19870;DHT22;10097;50.862;4.696;2023-08-24T16:26:13;27.30;99.90
19870;DHT22;10097;50.862;4.696;2023-08-24T16:28:39;27.40;99.90
19870;DHT22;10097;50.862;4.696;2023-08-24T16:31:07;27.40;99.90
19870;DHT22;10097;50.862;4.696;2023-08-24T16:33:34;27.70;99.90
19870;DHT22;10097;50.862;4.696;2023-08-24T16:35:59;28.20;99.90
19870;DHT22;10097;50.862;4.696;2023-08-24T16:38:25;28.40;99.90
19870;DHT22;10097;50.862;4.696;2023-08-24T16:40:51;28.70;99.90
19870;DHT22;10097;50.862;4.696;2023-08-24T16:43:17;29.10;99.90
19870;DHT22;10097;50.862;4.696;2023-08-24T16:45:42;29.10;99.90
19870;DHT22;10097;50.862;4.696;2023-08-24T16:48:08;29.30;99.90
19870;DHT22;10097;50.862;4.696;2023-08-24T16:50:34;29.40;99.90
19870;DHT22;10097;50.862;4.696;2023-08-24T16:53:00;29.40;99.90
19870;DHT22;10097;50.862;4.696;2023-08-24T16:55:26;29.30;99.90
19870;DHT22;10097;50.862;4.696;2023-08-24T16:57:51;28.90;99.90
19870;DHT22;10097;50.862;4.696;2023-08-24T17:00:17;28.70;99.90
19870;DHT22;10097;50.862;4.696;2023-08-24T17:02:43;28.80;99.90
19870;DHT22;10097;50.862;4.696;2023-08-24T17:05:09;28.90;99.90
19870;DHT22;10097;50.862;4.696;2023-08-24T17:07:38;29.10;99.90
19870;DHT22;10097;50.862;4.696;2023-08-24T17:10:06;29.40;99.90
19870;DHT22;10097;50.862;4.696;2023-08-24T17:12:32;29.70;99.90
19870;DHT22;10097;50.862;4.696;2023-08-24T17:14:57;29.50;99.90
19870;DHT22;10097;50.862;4.696;2023-08-24T17:17:23;29.50;99.90
19870;DHT22;10097;50.862;4.696;2023-08-24T17:19:49;29.80;99.90
19870;DHT22;10097;50.862;4.696;2023-08-24T17:22:14;29.80;99.90
19870;DHT22;10097;50.862;4.696;2023-08-24T17:24:40;29.90;99.90
19870;DHT22;10097;50.862;4.696;2023-08-24T17:27:09;30.10;99.90
19870;DHT22;10097;50.862;4.696;2023-08-24T17:29:34;30.20;99.90
19870;DHT22;10097;50.862;4.696;2023-08-24T17:32:00;30.20;99.90
19870;DHT22;10097;50.862;4.696;2023-08-24T17:34:26;30.00;99.90
19870;DHT22;10097;50.862;4.696;2023-08-24T17:36:51;30.10;99.90
19870;DHT22;10097;50.862;4.696;2023-08-24T17:39:20;30.20;99.90
19870;DHT22;10097;50.862;4.696;2023-08-24T17:41:45;30.00;99.90
19870;DHT22;10097;50.862;4.696;2023-08-24T17:44:15;29.60;99.90
19870;DHT22;10097;50.862;4.696;2023-08-24T17:46:40;29.10;99.90
19870;DHT22;10097;50.862;4.696;2023-08-24T17:49:06;28.70;99.90
19870;DHT22;10097;50.862;4.696;2023-08-24T17:51:32;28.30;99.90
19870;DHT22;10097;50.862;4.696;2023-08-24T17:53:57;28.00;99.90
19870;DHT22;10097;50.862;4.696;2023-08-24T17:56:26;27.60;99.90
19870;DHT22;10097;50.862;4.696;2023-08-24T17:58:54;27.40;99.90
19870;DHT22;10097;50.862;4.696;2023-08-24T18:01:19;27.10;99.90
19870;DHT22;10097;50.862;4.696;2023-08-24T18:03:45;26.80;99.90
19870;DHT22;10097;50.862;4.696;2023-08-24T18:06:11;26.60;99.90
19870;DHT22;10097;50.862;4.696;2023-08-24T18:08:36;26.40;99.90
19870;DHT22;10097;50.862;4.696;2023-08-24T18:11:03;26.10;99.90
19870;DHT22;10097;50.862;4.696;2023-08-24T18:13:29;25.90;99.90
19870;DHT22;10097;50.862;4.696;2023-08-24T18:15:58;25.80;99.90
19870;DHT22;10097;50.862;4.696;2023-08-24T18:18:24;25.60;99.90
19870;DHT22;10097;50.862;4.696;2023-08-24T18:20:50;25.40;99.90
19870;DHT22;10097;50.862;4.696;2023-08-24T18:23:15;25.30;99.90
19870;DHT22;10097;50.862;4.696;2023-08-24T18:25:41;25.10;99.90
19870;DHT22;10097;50.862;4.696;2023-08-24T18:28:07;24.90;99.90
19870;DHT22;10097;50.862;4.696;2023-08-24T18:30:33;24.80;99.90
19870;DHT22;10097;50.862;4.696;2023-08-24T18:33:00;24.60;99.90
19870;DHT22;10097;50.862;4.696;2023-08-24T18:35:25;24.50;99.90
19870;DHT22;10097;50.862;4.696;2023-08-24T18:37:52;24.40;99.90
19870;DHT22;10097;50.862;4.696;2023-08-24T18:40:18;24.30;99.90
19870;DHT22;10097;50.862;4.696;2023-08-24T18:42:43;24.20;99.90
19870;DHT22;10097;50.862;4.696;2023-08-24T18:45:09;24.00;99.90
19870;DHT22;10097;50.862;4.696;2023-08-24T18:47:35;23.90;99.90
19870;DHT22;10097;50.862;4.696;2023-08-24T18:50:01;23.70;99.90
19870;DHT22;10097;50.862;4.696;2023-08-24T18:52:28;23.70;99.90
19870;DHT22;10097;50.862;4.696;2023-08-24T18:54:54;23.70;99.90
19870;DHT22;10097;50.862;4.696;2023-08-24T18:57:21;23.50;99.90
19870;DHT22;10097;50.862;4.696;2023-08-24T18:59:49;23.40;99.90
19870;DHT22;10097;50.862;4.696;2023-08-24T19:02:15;23.40;99.90
19870;DHT22;10097;50.862;4.696;2023-08-24T19:04:44;23.30;99.90
19870;DHT22;10097;50.862;4.696;2023-08-24T19:07:09;23.20;99.90
19870;DHT22;10097;50.862;4.696;2023-08-24T19:09:38;23.20;99.90
19870;DHT22;10097;50.862;4.696;2023-08-24T19:12:05;23.10;99.90
19870;DHT22;10097;50.862;4.696;2023-08-24T19:14:31;23.10;99.90
19870;DHT22;10097;50.862;4.696;2023-08-24T19:17:00;23.00;99.90
19870;DHT22;10097;50.862;4.696;2023-08-24T19:19:29;22.90;99.90
19870;DHT22;10097;50.862;4.696;2023-08-24T19:21:54;22.80;99.90
19870;DHT22;10097;50.862;4.696;2023-08-24T19:24:20;22.80;99.90
19870;DHT22;10097;50.862;4.696;2023-08-24T19:26:46;22.80;99.90
19870;DHT22;10097;50.862;4.696;2023-08-24T19:29:12;22.70;99.90
19870;DHT22;10097;50.862;4.696;2023-08-24T19:31:37;22.70;99.90
19870;DHT22;10097;50.862;4.696;2023-08-24T19:34:03;22.60;99.90
19870;DHT22;10097;50.862;4.696;2023-08-24T19:36:29;22.50;99.90
19870;DHT22;10097;50.862;4.696;2023-08-24T19:38:59;22.50;99.90
19870;DHT22;10097;50.862;4.696;2023-08-24T19:41:25;22.40;99.90
19870;DHT22;10097;50.862;4.696;2023-08-24T19:43:57;22.30;99.90
19870;DHT22;10097;50.862;4.696;2023-08-24T19:46:23;22.20;99.90
19870;DHT22;10097;50.862;4.696;2023-08-24T19:49:14;22.20;99.90
19870;DHT22;10097;50.862;4.696;2023-08-24T19:51:46;22.20;99.90
19870;DHT22;10097;50.862;4.696;2023-08-24T19:54:14;22.10;99.90
19870;DHT22;10097;50.862;4.696;2023-08-24T19:56:51;22.00;99.90
19870;DHT22;10097;50.862;4.696;2023-08-24T19:59:16;22.00;99.90
19870;DHT22;10097;50.862;4.696;2023-08-24T20:01:42;22.10;99.90
19870;DHT22;10097;50.862;4.696;2023-08-24T20:04:08;22.00;99.90
19870;DHT22;10097;50.862;4.696;2023-08-24T20:06:34;22.00;99.90
19870;DHT22;10097;50.862;4.696;2023-08-24T20:08:59;22.00;99.90
19870;DHT22;10097;50.862;4.696;2023-08-24T20:11:26;22.00;99.90
19870;DHT22;10097;50.862;4.696;2023-08-24T20:13:55;22.00;99.90
19870;DHT22;10097;50.862;4.696;2023-08-24T20:16:24;22.00;99.90
19870;DHT22;10097;50.862;4.696;2023-08-24T20:18:52;21.90;99.90
19870;DHT22;10097;50.862;4.696;2023-08-24T20:21:27;21.90;99.90
19870;DHT22;10097;50.862;4.696;2023-08-24T20:23:54;21.80;99.90
19870;DHT22;10097;50.862;4.696;2023-08-24T20:26:20;21.80;99.90
19870;DHT22;10097;50.862;4.696;2023-08-24T20:28:49;21.80;99.90
19870;DHT22;10097;50.862;4.696;2023-08-24T20:31:18;21.80;99.90
19870;DHT22;10097;50.862;4.696;2023-08-24T20:33:56;21.80;99.90
19870;DHT22;10097;50.862;4.696;2023-08-24T20:36:28;21.80;99.90
19870;DHT22;10097;50.862;4.696;2023-08-24T20:38:56;21.80;99.90
19870;DHT22;10097;50.862;4.696;2023-08-24T20:41:24;21.90;99.90
19870;DHT22;10097;50.862;4.696;2023-08-24T20:44:03;21.90;99.90
19870;DHT22;10097;50.862;4.696;2023-08-24T20:46:34;22.00;99.90
19870;DHT22;10097;50.862;4.696;2023-08-24T20:49:02;21.90;99.90
19870;DHT22;10097;50.862;4.696;2023-08-24T20:51:44;21.90;99.90
19870;DHT22;10097;50.862;4.696;2023-08-24T20:54:19;21.90;99.90
19870;DHT22;10097;50.862;4.696;2023-08-24T20:56:44;21.90;99.90
19870;DHT22;10097;50.862;4.696;2023-08-24T20:59:10;22.00;99.90
19870;DHT22;10097;50.862;4.696;2023-08-24T21:01:36;22.00;99.90
19870;DHT22;10097;50.862;4.696;2023-08-24T21:04:06;21.90;99.90
19870;DHT22;10097;50.862;4.696;2023-08-24T21:06:33;21.90;99.90
19870;DHT22;10097;50.862;4.696;2023-08-24T21:08:59;21.80;99.90
19870;DHT22;10097;50.862;4.696;2023-08-24T21:11:27;21.80;99.90
19870;DHT22;10097;50.862;4.696;2023-08-24T21:13:53;21.70;99.90
19870;DHT22;10097;50.862;4.696;2023-08-24T21:16:19;21.70;99.90
19870;DHT22;10097;50.862;4.696;2023-08-24T21:18:45;21.70;99.90
19870;DHT22;10097;50.862;4.696;2023-08-24T21:21:11;21.70;99.90
19870;DHT22;10097;50.862;4.696;2023-08-24T21:23:36;21.70;99.90
19870;DHT22;10097;50.862;4.696;2023-08-24T21:26:02;21.60;99.90
19870;DHT22;10097;50.862;4.696;2023-08-24T21:28:27;21.60;99.90
19870;DHT22;10097;50.862;4.696;2023-08-24T21:31:01;21.60;99.90
19870;DHT22;10097;50.862;4.696;2023-08-24T21:33:28;21.60;99.90
19870;DHT22;10097;50.862;4.696;2023-08-24T21:35:54;21.60;99.90
19870;DHT22;10097;50.862;4.696;2023-08-24T21:38:20;21.60;99.90
19870;DHT22;10097;50.862;4.696;2023-08-24T21:40:45;21.50;99.90
19870;DHT22;10097;50.862;4.696;2023-08-24T21:43:11;21.40;99.90
19870;DHT22;10097;50.862;4.696;2023-08-24T21:45:37;21.40;99.90
19870;DHT22;10097;50.862;4.696;2023-08-24T21:48:03;21.30;99.90
19870;DHT22;10097;50.862;4.696;2023-08-24T21:50:29;21.30;99.90
19870;DHT22;10097;50.862;4.696;2023-08-24T21:52:57;21.20;99.90
19870;DHT22;10097;50.862;4.696;2023-08-24T21:55:23;21.20;99.90
19870;DHT22;10097;50.862;4.696;2023-08-24T21:57:49;21.20;99.90
19870;DHT22;10097;50.862;4.696;2023-08-24T22:00:17;21.10;99.90
19870;DHT22;10097;50.862;4.696;2023-08-24T22:02:42;21.10;99.90
19870;DHT22;10097;50.862;4.696;2023-08-24T22:05:08;21.00;99.90
19870;DHT22;10097;50.862;4.696;2023-08-24T22:07:35;21.00;99.90
19870;DHT22;10097;50.862;4.696;2023-08-24T22:10:01;20.90;99.90
19870;DHT22;10097;50.862;4.696;2023-08-24T22:12:27;20.90;99.90
19870;DHT22;10097;50.862;4.696;2023-08-24T22:14:52;20.80;99.90
19870;DHT22;10097;50.862;4.696;2023-08-24T22:17:19;20.80;99.90
19870;DHT22;10097;50.862;4.696;2023-08-24T22:19:45;20.80;99.90
19870;DHT22;10097;50.862;4.696;2023-08-24T22:22:10;20.70;99.90
19870;DHT22;10097;50.862;4.696;2023-08-24T22:24:37;20.70;99.90
19870;DHT22;10097;50.862;4.696;2023-08-24T22:27:03;20.70;99.90
19870;DHT22;10097;50.862;4.696;2023-08-24T22:29:29;20.70;99.90
19870;DHT22;10097;50.862;4.696;2023-08-24T22:32:00;20.60;99.90
19870;DHT22;10097;50.862;4.696;2023-08-24T22:34:27;20.60;99.90
19870;DHT22;10097;50.862;4.696;2023-08-24T22:36:53;20.50;99.90
19870;DHT22;10097;50.862;4.696;2023-08-24T22:39:18;20.60;99.90
19870;DHT22;10097;50.862;4.696;2023-08-24T22:41:44;20.50;99.90
19870;DHT22;10097;50.862;4.696;2023-08-24T22:44:10;20.50;99.90
19870;DHT22;10097;50.862;4.696;2023-08-24T22:46:36;20.50;99.90
19870;DHT22;10097;50.862;4.696;2023-08-24T22:49:03;20.50;99.90
19870;DHT22;10097;50.862;4.696;2023-08-24T22:51:32;20.40;99.90
19870;DHT22;10097;50.862;4.696;2023-08-24T22:53:59;20.40;99.90
19870;DHT22;10097;50.862;4.696;2023-08-24T22:56:24;20.40;99.90
19870;DHT22;10097;50.862;4.696;2023-08-24T22:58:50;20.30;99.90
19870;DHT22;10097;50.862;4.696;2023-08-24T23:01:17;20.30;99.90
19870;DHT22;10097;50.862;4.696;2023-08-24T23:03:46;20.30;99.90
19870;DHT22;10097;50.862;4.696;2023-08-24T23:06:19;20.30;99.90
19870;DHT22;10097;50.862;4.696;2023-08-24T23:08:46;20.30;99.90
19870;DHT22;10097;50.862;4.696;2023-08-24T23:11:12;20.30;99.90
19870;DHT22;10097;50.862;4.696;2023-08-24T23:13:39;20.30;99.90
19870;DHT22;10097;50.862;4.696;2023-08-24T23:16:05;20.30;99.90
19870;DHT22;10097;50.862;4.696;2023-08-24T23:18:34;20.30;99.90
19870;DHT22;10097;50.862;4.696;2023-08-24T23:21:00;20.30;99.90
19870;DHT22;10097;50.862;4.696;2023-08-24T23:23:29;20.30;99.90
19870;DHT22;10097;50.862;4.696;2023-08-24T23:25:55;20.30;99.90
19870;DHT22;10097;50.862;4.696;2023-08-24T23:28:20;20.30;99.90
19870;DHT22;10097;50.862;4.696;2023-08-24T23:30:46;20.30;99.90
19870;DHT22;10097;50.862;4.696;2023-08-24T23:33:12;20.30;99.90
19870;DHT22;10097;50.862;4.696;2023-08-24T23:35:43;20.30;99.90
19870;DHT22;10097;50.862;4.696;2023-08-24T23:38:10;20.30;99.90
19870;DHT22;10097;50.862;4.696;2023-08-24T23:40:36;20.30;99.90
19870;DHT22;10097;50.862;4.696;2023-08-24T23:43:02;20.30;99.90
19870;DHT22;10097;50.862;4.696;2023-08-24T23:45:29;20.30;99.90
19870;DHT22;10097;50.862;4.696;2023-08-24T23:47:55;20.40;99.90
19870;DHT22;10097;50.862;4.696;2023-08-24T23:50:21;20.30;99.90
19870;DHT22;10097;50.862;4.696;2023-08-24T23:52:47;20.30;99.90
19870;DHT22;10097;50.862;4.696;2023-08-24T23:55:14;20.30;99.90
19870;DHT22;10097;50.862;4.696;2023-08-24T23:57:39;20.30;99.90
